Terminal Aerodrome Forecast
Issued by NWS

Home | Current Version | Previous Version | Text Only | Print | Product List | Glossary On
Versions: 1 2 3 4 5 6 7 8 9 10 11 12 13 14 15 16 17 18 19 20 21 22 23 24 25 26 27 28 29 30 31 32 33 34 35 36 37 38
000
FTUS46 KOTX 051329 AAB
TAFPUW
TAF AMD
KPUW 051329Z 0513/0612 24011KT P6SM VCSH BKN015 BKN050 OVC090
      TEMPO 0513/0517 SCT015 OVC050
     FM051700 24014G20KT P6SM -RA SCT015 BKN025 OVC040
      TEMPO 0518/0522 4SM -RA BKN015 OVC030
     FM060200 24008KT P6SM -SHRA SCT040 BKN060 OVC100
     FM060600 22006KT P6SM SCT050 SCT100 BKN200=

USA.gov is the U.S. government's official web portal to all federal, state and local government web resources and services.